Time;durP1;ratioP1;P1;durP2;ratioP2;P2;SDS_P1;SDS_P2;PMS_P1;PMS_P2;Temp;Humidity;BMP_temperature;BMP_pressure;BME280_temperature;BME280_humidity;BME280_pressure;Samples;Min_cycle;Max_cycle;Signal;HPM_P1;HPM_P2
2024/03/16 00:00:50;;;;;;;13.13;1.30;;;11.00;99.90;;;;;;5003205;28;20206;-85
2024/03/16 00:03:16;;;;;;;12.50;1.33;;;11.00;99.90;;;;;;5003489;28;20441;-85
2024/03/16 00:05:42;;;;;;;12.30;0.97;;;11.00;99.90;;;;;;5003442;28;20193;-85
2024/03/16 00:08:10;;;;;;;14.27;1.90;;;10.90;99.90;;;;;;5003620;28;20178;-85
2024/03/16 00:10:36;;;;;;;13.80;0.93;;;10.90;99.90;;;;;;5004365;28;20429;-86
2024/03/16 00:13:02;;;;;;;14.17;1.17;;;10.90;99.90;;;;;;5003521;28;20199;-86
2024/03/16 00:15:27;;;;;;;13.23;1.23;;;10.90;99.90;;;;;;5005265;28;20660;-86
2024/03/16 00:17:53;;;;;;;19.33;1.10;;;10.90;99.90;;;;;;5006277;28;20160;-86
2024/03/16 00:20:19;;;;;;;12.30;1.00;;;10.90;99.90;;;;;;5003903;28;20163;-85
2024/03/16 00:22:46;;;;;;;12.98;1.15;;;10.90;99.90;;;;;;5002017;28;20651;-85
2024/03/16 00:25:11;;;;;;;13.35;1.00;;;10.90;99.90;;;;;;5003042;28;20159;-86
2024/03/16 00:27:39;;;;;;;15.77;1.30;;;10.80;99.90;;;;;;5003023;28;20163;-86
2024/03/16 00:30:06;;;;;;;13.35;1.02;;;10.70;99.90;;;;;;5002642;28;20198;-85
2024/03/16 00:32:32;;;;;;;12.07;0.88;;;10.80;99.90;;;;;;5003497;28;20202;-86
2024/03/16 00:34:58;;;;;;;12.15;0.70;;;10.70;99.90;;;;;;5003607;28;20190;-85
2024/03/16 00:37:24;;;;;;;13.70;0.83;;;10.70;99.90;;;;;;5000405;28;20258;-85
2024/03/16 00:39:50;;;;;;;11.73;0.70;;;10.70;99.90;;;;;;5001449;28;20398;-85
2024/03/16 00:42:19;;;;;;;12.57;0.70;;;10.60;99.90;;;;;;5002090;28;20421;-85
2024/03/16 00:44:45;;;;;;;12.30;0.80;;;10.70;99.90;;;;;;5000618;28;20230;-85
2024/03/16 00:47:11;;;;;;;12.77;0.97;;;10.70;99.90;;;;;;5001743;28;20167;-86
2024/03/16 00:49:37;;;;;;;13.23;0.80;;;10.60;99.90;;;;;;5002892;28;20172;-86
2024/03/16 00:52:03;;;;;;;12.97;0.90;;;10.60;99.90;;;;;;5004027;28;20187;-85
2024/03/16 00:54:28;;;;;;;11.77;0.70;;;10.50;99.90;;;;;;5002646;28;20187;-85
2024/03/16 00:56:54;;;;;;;11.63;0.70;;;10.50;99.90;;;;;;5002074;28;20171;-86
2024/03/16 00:59:21;;;;;;;15.17;0.80;;;10.50;99.90;;;;;;5004117;28;20164;-86
2024/03/16 01:01:47;;;;;;;12.05;0.90;;;10.60;99.90;;;;;;5004628;28;20179;-86
2024/03/16 01:04:13;;;;;;;12.02;0.70;;;10.60;99.90;;;;;;5004767;28;20175;-86
2024/03/16 01:06:38;;;;;;;12.40;0.90;;;10.60;99.90;;;;;;5003882;28;20632;-86
2024/03/16 01:09:04;;;;;;;11.57;0.70;;;10.60;99.90;;;;;;5005959;28;20187;-86
2024/03/16 01:11:35;;;;;;;11.80;0.80;;;10.60;99.90;;;;;;5004534;28;20245;-86
2024/03/16 01:14:01;;;;;;;11.90;0.90;;;10.60;99.90;;;;;;5006588;28;20191;-86
2024/03/16 01:16:27;;;;;;;12.50;1.00;;;10.50;99.90;;;;;;5004985;28;20163;-86
2024/03/16 01:18:53;;;;;;;11.90;0.80;;;10.50;99.90;;;;;;5005276;28;20174;-86
2024/03/16 01:21:19;;;;;;;13.32;1.20;;;10.50;99.90;;;;;;5005293;28;20242;-86
2024/03/16 01:23:45;;;;;;;12.02;1.10;;;10.50;99.90;;;;;;5003909;28;20171;-86
2024/03/16 01:26:11;;;;;;;15.38;1.00;;;10.50;99.90;;;;;;5004123;28;20254;-85
2024/03/16 01:28:36;;;;;;;12.03;0.80;;;10.60;99.90;;;;;;5001452;28;20644;-86
2024/03/16 01:31:02;;;;;;;12.17;0.80;;;10.60;99.90;;;;;;5000319;28;20191;-85
2024/03/16 01:33:28;;;;;;;12.20;0.80;;;10.50;99.90;;;;;;5000074;28;20657;-86
2024/03/16 01:35:54;;;;;;;12.70;0.83;;;10.50;99.90;;;;;;5000495;28;20160;-85
2024/03/16 01:38:20;;;;;;;12.38;1.00;;;10.50;99.90;;;;;;4999002;28;20186;-84
2024/03/16 01:40:46;;;;;;;12.97;1.00;;;10.60;99.90;;;;;;4997886;28;20183;-83
2024/03/16 01:43:13;;;;;;;12.02;1.00;;;10.70;99.90;;;;;;4995788;28;20414;-84
2024/03/16 01:45:42;;;;;;;12.20;0.70;;;10.70;99.90;;;;;;4998168;28;20198;-84
2024/03/16 01:48:11;;;;;;;13.55;0.82;;;10.60;99.90;;;;;;4997057;28;20206;-85
2024/03/16 01:50:41;;;;;;;14.25;1.00;;;10.60;99.90;;;;;;4998771;28;20241;-85
2024/03/16 01:53:09;;;;;;;12.48;1.20;;;10.60;99.90;;;;;;4998005;28;20615;-85
2024/03/16 01:55:36;;;;;;;12.35;0.80;;;10.60;99.90;;;;;;4998258;28;20164;-84
2024/03/16 01:58:04;;;;;;;11.93;0.80;;;10.60;99.90;;;;;;4997520;28;20167;-85
2024/03/16 02:00:30;;;;;;;12.20;1.15;;;10.70;99.90;;;;;;4997215;28;20215;-85
2024/03/16 02:02:56;;;;;;;18.73;1.02;;;10.70;99.90;;;;;;4997603;28;20533;-85
2024/03/16 02:05:22;;;;;;;11.80;0.80;;;10.80;99.90;;;;;;4995876;28;20263;-84
2024/03/16 02:07:50;;;;;;;13.43;1.10;;;10.80;99.90;;;;;;4981217;28;20172;-85
2024/03/16 02:10:17;;;;;;;12.30;1.00;;;10.80;99.90;;;;;;4999283;28;20183;-85
2024/03/16 02:12:45;;;;;;;11.85;0.80;;;10.70;99.90;;;;;;4999418;28;20171;-86
2024/03/16 02:15:11;;;;;;;13.63;1.00;;;10.70;99.90;;;;;;4998990;28;20164;-85
2024/03/16 02:17:37;;;;;;;12.68;0.90;;;10.70;99.90;;;;;;4999368;28;20164;-85
2024/03/16 02:20:07;;;;;;;14.77;1.10;;;10.70;99.90;;;;;;4999135;28;20175;-86
2024/03/16 02:22:35;;;;;;;11.95;0.95;;;10.70;99.90;;;;;;4999545;28;20164;-85
2024/03/16 02:25:02;;;;;;;13.68;1.15;;;10.60;99.90;;;;;;4999664;28;20238;-86
2024/03/16 02:27:28;;;;;;;12.10;1.00;;;10.60;99.90;;;;;;4998373;28;20541;-85
2024/03/16 02:29:56;;;;;;;12.70;0.90;;;10.60;99.90;;;;;;4997610;28;20171;-85
2024/03/16 02:32:22;;;;;;;12.10;1.00;;;10.60;99.90;;;;;;4997289;28;20190;-85
2024/03/16 02:34:48;;;;;;;12.27;1.20;;;10.60;99.90;;;;;;4998225;28;20275;-85
2024/03/16 02:37:13;;;;;;;12.50;1.37;;;10.60;99.90;;;;;;4998770;28;20159;-85
2024/03/16 02:39:39;;;;;;;15.07;1.00;;;10.60;99.90;;;;;;4998610;28;20164;-85
2024/03/16 02:42:05;;;;;;;12.47;1.10;;;10.60;99.90;;;;;;4996602;28;20419;-84
2024/03/16 02:44:31;;;;;;;18.87;2.10;;;10.60;99.90;;;;;;4995202;28;20418;-85
2024/03/16 02:46:59;;;;;;;12.67;1.30;;;10.60;99.90;;;;;;4999196;28;20223;-85
2024/03/16 02:49:25;;;;;;;15.98;1.30;;;10.60;99.90;;;;;;4999951;28;20497;-86
2024/03/16 02:51:54;;;;;;;12.75;1.15;;;10.60;99.90;;;;;;5000451;28;20193;-85
2024/03/16 02:54:20;;;;;;;13.95;1.15;;;10.60;99.90;;;;;;5000285;28;20685;-85
2024/03/16 02:56:46;;;;;;;15.20;2.07;;;10.70;99.90;;;;;;5000175;28;20168;-84
2024/03/16 02:59:12;;;;;;;16.60;1.40;;;10.70;99.90;;;;;;5000797;28;20167;-85
2024/03/16 03:01:38;;;;;;;15.73;1.60;;;10.70;99.90;;;;;;4999887;28;20198;-85
2024/03/16 03:04:05;;;;;;;12.52;1.30;;;10.80;99.90;;;;;;4999856;28;20163;-86
2024/03/16 03:06:32;;;;;;;12.93;1.27;;;10.80;99.90;;;;;;5000481;28;20175;-85
2024/03/16 03:08:58;;;;;;;12.90;1.10;;;10.80;99.90;;;;;;4998373;28;20178;-85
2024/03/16 03:11:27;;;;;;;14.15;1.55;;;10.80;99.90;;;;;;5000092;28;20238;-85
2024/03/16 03:13:53;;;;;;;12.93;1.45;;;10.80;99.90;;;;;;4999576;28;20204;-85
2024/03/16 03:16:19;;;;;;;12.77;1.33;;;10.80;99.90;;;;;;4998597;28;20651;-85
2024/03/16 03:18:50;;;;;;;13.00;1.60;;;10.80;99.90;;;;;;4980954;28;20437;-84
2024/03/16 03:21:17;;;;;;;14.40;1.75;;;10.80;99.90;;;;;;4998090;28;20198;-85
2024/03/16 03:23:46;;;;;;;12.10;1.33;;;10.90;99.90;;;;;;4997355;28;20171;-85
2024/03/16 03:26:13;;;;;;;15.75;1.30;;;10.80;99.90;;;;;;4999122;28;20167;-85
2024/03/16 03:28:39;;;;;;;17.67;1.70;;;10.90;99.90;;;;;;4997464;28;20171;-85
2024/03/16 03:31:06;;;;;;;14.80;1.48;;;10.90;99.90;;;;;;4996563;28;20715;-85
2024/03/16 03:33:32;;;;;;;12.95;1.45;;;10.80;99.90;;;;;;4998781;28;20588;-86
2024/03/16 03:35:59;;;;;;;12.60;1.23;;;10.70;99.90;;;;;;5000039;28;20169;-86
2024/03/16 03:38:25;;;;;;;13.95;1.20;;;10.70;99.90;;;;;;4998981;28;20405;-86
2024/03/16 03:40:50;;;;;;;13.13;1.70;;;10.70;99.90;;;;;;4999404;28;20187;-86
2024/03/16 03:43:21;;;;;;;16.53;1.70;;;10.70;99.90;;;;;;4999241;28;20171;-86
2024/03/16 03:45:50;;;;;;;13.45;1.55;;;10.70;99.90;;;;;;4980491;28;20671;-86
2024/03/16 03:50:48;;;;;;;13.43;1.10;;;10.70;99.90;;;;;;4998654;28;20187;-85
2024/03/16 03:53:15;;;;;;;15.35;1.80;;;10.70;99.90;;;;;;4996837;28;20218;-85
2024/03/16 03:55:44;;;;;;;15.40;1.92;;;10.70;99.90;;;;;;4997072;28;20186;-86
2024/03/16 03:58:10;;;;;;;12.50;1.55;;;10.70;99.90;;;;;;4996981;28;20156;-86
2024/03/16 04:00:36;;;;;;;12.83;1.63;;;10.80;99.90;;;;;;4998608;28;20191;-86
2024/03/16 04:03:05;;;;;;;14.80;2.33;;;10.80;99.90;;;;;;4998233;28;20636;-86
2024/03/16 04:05:31;;;;;;;12.38;1.40;;;10.80;99.90;;;;;;4980849;28;20206;-86
2024/03/16 04:07:57;;;;;;;15.23;2.10;;;10.80;99.90;;;;;;4996756;28;20178;-85
2024/03/16 04:10:22;;;;;;;13.70;1.83;;;10.80;99.90;;;;;;4978404;28;20172;-85
2024/03/16 04:12:48;;;;;;;12.97;2.00;;;10.90;99.90;;;;;;4994099;28;20171;-86
2024/03/16 04:15:14;;;;;;;13.20;1.70;;;10.90;99.90;;;;;;4996208;28;20176;-85
2024/03/16 04:17:40;;;;;;;14.20;2.38;;;10.90;99.90;;;;;;4996191;28;20179;-85
2024/03/16 04:20:12;;;;;;;13.20;1.77;;;10.90;99.90;;;;;;4995651;28;20537;-85
2024/03/16 04:22:42;;;;;;;13.32;1.67;;;10.90;99.90;;;;;;4995346;28;21031;-86
2024/03/16 04:25:09;;;;;;;14.02;2.00;;;11.00;99.90;;;;;;4996468;28;20223;-86
2024/03/16 04:27:35;;;;;;;14.52;1.77;;;10.90;99.90;;;;;;4994725;28;20171;-86
2024/03/16 04:30:01;;;;;;;19.55;1.60;;;11.00;99.90;;;;;;4994460;28;20183;-86
2024/03/16 04:32:27;;;;;;;13.43;1.80;;;11.00;99.90;;;;;;4994820;28;20286;-86
2024/03/16 04:34:53;;;;;;;16.23;2.03;;;11.00;99.90;;;;;;4996333;28;20668;-85
2024/03/16 04:37:19;;;;;;;13.45;1.80;;;11.00;99.90;;;;;;4997058;28;20163;-85
2024/03/16 04:39:45;;;;;;;13.50;2.28;;;11.00;99.90;;;;;;4999407;28;20167;-85
2024/03/16 04:42:12;;;;;;;14.60;1.80;;;11.00;99.90;;;;;;5078267;23;20631;-85
2024/03/16 04:44:38;;;;;;;13.60;1.90;;;10.90;99.90;;;;;;5001511;28;20543;-86
2024/03/16 04:47:04;;;;;;;16.10;2.37;;;10.90;99.90;;;;;;5002676;28;20257;-86
2024/03/16 04:49:30;;;;;;;18.13;2.60;;;11.00;99.90;;;;;;5019705;28;20174;-85
2024/03/16 04:51:56;;;;;;;16.73;2.70;;;11.00;99.90;;;;;;5090472;23;20226;-86
2024/03/16 04:54:23;;;;;;;12.60;1.90;;;11.00;99.90;;;;;;5019546;28;20686;-86
2024/03/16 04:56:49;;;;;;;15.48;2.38;;;11.10;99.90;;;;;;5002184;28;20406;-85
2024/03/16 04:59:14;;;;;;;14.97;2.50;;;11.00;99.90;;;;;;5020066;28;20567;-85
2024/03/16 05:01:40;;;;;;;16.40;2.40;;;11.10;99.90;;;;;;5002127;28;20190;-85
2024/03/16 05:04:06;;;;;;;15.43;3.10;;;11.10;99.90;;;;;;5019214;28;20171;-85
2024/03/16 05:06:32;;;;;;;16.40;2.60;;;11.10;99.90;;;;;;5019136;28;20162;-85
2024/03/16 05:08:58;;;;;;;16.35;2.40;;;11.10;99.90;;;;;;5000528;28;20257;-84
2024/03/16 05:11:24;;;;;;;17.07;2.50;;;11.00;99.90;;;;;;5017308;28;20671;-85
2024/03/16 05:13:50;;;;;;;13.60;2.23;;;11.00;99.90;;;;;;5000060;28;20459;-84
2024/03/16 05:16:16;;;;;;;13.02;1.92;;;11.00;99.90;;;;;;5017521;28;20174;-84
2024/03/16 05:18:42;;;;;;;14.43;2.30;;;11.00;99.90;;;;;;5000407;28;20167;-84
2024/03/16 05:21:08;;;;;;;14.17;2.43;;;11.00;99.90;;;;;;5000119;28;20437;-85
2024/03/16 05:23:34;;;;;;;14.65;2.75;;;11.00;99.90;;;;;;5000335;28;20173;-83
2024/03/16 05:26:00;;;;;;;15.50;2.23;;;11.00;99.90;;;;;;5017655;28;20167;-84
2024/03/16 05:28:25;;;;;;;20.63;4.00;;;11.00;99.90;;;;;;5003374;28;20178;-85
2024/03/16 05:30:54;;;;;;;14.90;2.77;;;11.00;99.90;;;;;;5021450;28;20197;-85
2024/03/16 05:33:20;;;;;;;19.45;3.13;;;11.00;99.90;;;;;;5020423;28;20194;-85
2024/03/16 05:35:46;;;;;;;21.73;3.30;;;11.00;99.90;;;;;;5020127;28;20169;-84
2024/03/16 05:38:11;;;;;;;17.20;3.60;;;11.00;99.90;;;;;;5001565;28;20266;-86
2024/03/16 05:40:45;;;;;;;16.60;2.87;;;11.00;99.90;;;;;;5021402;28;20192;-86
2024/03/16 05:43:11;;;;;;;16.45;3.83;;;11.00;99.90;;;;;;5004680;28;20678;-85
2024/03/16 05:45:37;;;;;;;15.40;3.03;;;11.00;99.90;;;;;;5004832;28;20178;-86
2024/03/16 05:48:03;;;;;;;17.97;3.37;;;11.00;99.90;;;;;;5021875;28;20174;-86
2024/03/16 05:50:28;;;;;;;16.37;3.00;;;11.00;99.90;;;;;;5021598;28;20280;-86
2024/03/16 05:52:54;;;;;;;15.00;3.00;;;11.00;99.90;;;;;;5004665;28;20424;-86
2024/03/16 05:55:20;;;;;;;17.17;3.10;;;11.00;99.90;;;;;;5004552;28;20171;-86
2024/03/16 05:57:46;;;;;;;14.55;2.63;;;11.00;99.90;;;;;;5004464;28;20176;-86
2024/03/16 06:00:15;;;;;;;16.80;3.30;;;11.00;99.90;;;;;;5003860;28;20234;-86
2024/03/16 06:02:40;;;;;;;17.38;3.28;;;11.00;99.90;;;;;;5004105;28;20485;-85
2024/03/16 06:05:07;;;;;;;16.80;2.90;;;11.10;99.90;;;;;;5003442;28;20648;-86
2024/03/16 06:07:33;;;;;;;15.52;2.67;;;11.10;99.90;;;;;;5021273;28;20186;-86
2024/03/16 06:09:59;;;;;;;17.80;4.10;;;11.00;99.90;;;;;;5003555;28;20197;-86
2024/03/16 06:12:30;;;;;;;18.03;2.97;;;11.00;99.90;;;;;;5021325;28;20437;-86
2024/03/16 06:14:56;;;;;;;17.25;3.15;;;11.00;99.90;;;;;;5020889;28;20186;-86
2024/03/16 06:17:22;;;;;;;16.60;3.20;;;11.00;99.90;;;;;;5003772;28;20181;-86
2024/03/16 06:19:49;;;;;;;16.03;3.43;;;11.00;99.90;;;;;;5004035;28;20540;-86
2024/03/16 06:22:16;;;;;;;15.07;3.17;;;11.10;99.90;;;;;;5021136;28;20178;-86
2024/03/16 06:24:42;;;;;;;15.13;3.22;;;11.10;99.90;;;;;;5019616;28;20667;-85
2024/03/16 06:27:10;;;;;;;14.65;2.42;;;11.20;99.90;;;;;;5002963;28;20171;-84
2024/03/16 06:29:36;;;;;;;16.15;2.90;;;11.20;99.90;;;;;;5002332;28;20190;-85
2024/03/16 06:32:05;;;;;;;16.30;3.00;;;11.20;99.90;;;;;;5019746;28;20193;-84
2024/03/16 06:34:34;;;;;;;17.27;2.50;;;11.20;99.90;;;;;;5019849;28;20213;-84
2024/03/16 06:37:00;;;;;;;15.05;3.10;;;11.20;99.90;;;;;;5002352;28;20163;-85
2024/03/16 06:39:27;;;;;;;15.13;2.25;;;11.20;99.90;;;;;;5002526;28;20535;-85
2024/03/16 06:41:53;;;;;;;14.63;2.92;;;11.20;99.90;;;;;;5019563;28;20178;-84
2024/03/16 06:44:18;;;;;;;15.32;2.63;;;11.20;99.90;;;;;;5019692;28;20171;-85
2024/03/16 06:46:44;;;;;;;14.17;2.30;;;11.10;99.90;;;;;;5018299;28;20170;-85
2024/03/16 06:49:10;;;;;;;15.10;3.20;;;11.00;99.90;;;;;;4999963;28;20178;-86
2024/03/16 06:51:36;;;;;;;20.70;3.13;;;10.90;99.90;;;;;;4998708;28;20468;-86
2024/03/16 06:54:03;;;;;;;15.23;3.60;;;10.80;99.90;;;;;;4998598;28;20548;-85
2024/03/16 06:56:29;;;;;;;17.27;4.20;;;10.70;99.90;;;;;;4998439;28;20253;-86
2024/03/16 06:58:55;;;;;;;20.60;6.10;;;10.60;99.90;;;;;;5015751;28;20213;-86
2024/03/16 07:01:24;;;;;;;21.38;5.53;;;10.50;99.90;;;;;;4997504;28;20221;-86
2024/03/16 07:03:50;;;;;;;15.85;4.05;;;10.50;99.90;;;;;;4996443;28;20170;-85
2024/03/16 07:06:16;;;;;;;19.40;4.50;;;10.40;99.90;;;;;;4996506;28;20199;-86
2024/03/16 07:08:41;;;;;;;15.70;3.93;;;10.30;99.90;;;;;;5014239;28;20591;-86
2024/03/16 07:11:07;;;;;;;20.80;3.63;;;10.30;99.90;;;;;;5014577;28;20185;-86
2024/03/16 07:13:33;;;;;;;15.80;3.73;;;10.20;99.90;;;;;;5014528;28;20598;-86
2024/03/16 07:15:58;;;;;;;15.30;2.80;;;10.10;99.90;;;;;;4996902;28;20220;-86
2024/03/16 07:18:24;;;;;;;14.30;2.87;;;10.10;99.90;;;;;;4996249;28;20224;-86
2024/03/16 07:20:50;;;;;;;14.90;2.90;;;10.10;99.90;;;;;;5013958;28;20186;-86
2024/03/16 07:23:16;;;;;;;20.33;3.80;;;10.10;99.90;;;;;;4998345;28;20175;-86
2024/03/16 07:25:41;;;;;;;16.80;3.07;;;10.10;99.90;;;;;;4997580;28;20278;-86
2024/03/16 07:28:11;;;;;;;20.70;3.57;;;10.10;99.90;;;;;;5015451;28;20879;-86
2024/03/16 07:30:37;;;;;;;15.05;3.58;;;10.10;99.90;;;;;;5014591;28;20281;-86
2024/03/16 07:33:06;;;;;;;17.53;4.60;;;10.10;99.90;;;;;;4996399;28;20198;-86
2024/03/16 07:35:39;;;;;;;15.82;3.90;;;10.20;99.90;;;;;;5014955;28;20382;-86
2024/03/16 07:38:05;;;;;;;19.30;4.55;;;10.30;99.90;;;;;;5013749;28;20154;-86
2024/03/16 07:40:31;;;;;;;16.40;4.10;;;10.30;99.90;;;;;;5020908;23;20571;-86
2024/03/16 07:43:09;;;;;;;17.17;3.95;;;10.40;99.90;;;;;;4996573;28;20487;-86
2024/03/16 07:45:42;;;;;;;16.10;4.00;;;10.50;99.90;;;;;;5013862;28;20178;-86
2024/03/16 07:48:08;;;;;;;18.13;4.20;;;10.60;99.90;;;;;;5012219;28;20151;-86
2024/03/16 07:50:35;;;;;;;13.65;3.10;;;10.60;99.90;;;;;;5013823;28;20241;-85
2024/03/16 07:53:01;;;;;;;14.80;3.72;;;10.70;99.90;;;;;;4995813;28;20169;-86
2024/03/16 07:55:28;;;;;;;17.88;3.10;;;10.70;99.90;;;;;;4995997;28;20171;-85
2024/03/16 07:57:54;;;;;;;15.38;3.40;;;10.70;99.90;;;;;;4996444;28;20592;-86
2024/03/16 08:00:20;;;;;;;14.43;3.57;;;10.70;99.90;;;;;;5013979;28;20159;-85
2024/03/16 08:02:46;;;;;;;18.77;4.25;;;10.60;99.90;;;;;;4996130;28;20177;-86
2024/03/16 08:05:11;;;;;;;16.00;3.77;;;10.50;99.90;;;;;;5013999;28;20253;-86
2024/03/16 08:07:41;;;;;;;19.87;3.40;;;10.50;99.90;;;;;;4996129;28;20170;-86
2024/03/16 08:10:09;;;;;;;16.55;3.92;;;10.40;99.90;;;;;;5013541;28;20202;-87
2024/03/16 08:12:35;;;;;;;16.27;4.05;;;10.50;99.90;;;;;;5016497;28;20163;-86
2024/03/16 08:15:02;;;;;;;16.50;4.28;;;10.40;99.90;;;;;;5018729;28;20193;-86
2024/03/16 08:17:28;;;;;;;16.17;4.15;;;10.40;99.90;;;;;;4999993;28;20204;-86
2024/03/16 08:19:55;;;;;;;15.03;3.33;;;10.40;99.90;;;;;;5000206;28;20195;-86
2024/03/16 08:22:21;;;;;;;14.38;3.25;;;10.50;99.90;;;;;;5018225;28;20233;-86
2024/03/16 08:24:47;;;;;;;16.50;4.00;;;10.70;99.90;;;;;;5019606;28;20193;-86
2024/03/16 08:27:13;;;;;;;15.88;3.95;;;10.70;99.90;;;;;;5000948;28;20174;-85
2024/03/16 08:29:39;;;;;;;15.33;3.43;;;10.80;99.90;;;;;;5020510;28;20224;-86
2024/03/16 08:32:05;;;;;;;14.63;2.80;;;10.70;99.90;;;;;;5019919;28;20256;-86
2024/03/16 08:34:31;;;;;;;16.73;3.30;;;10.80;99.90;;;;;;5021493;28;20441;-86
2024/03/16 08:36:57;;;;;;;14.60;3.00;;;10.80;99.90;;;;;;5003867;28;20548;-85
2024/03/16 08:39:26;;;;;;;15.00;3.03;;;10.70;99.90;;;;;;5002712;28;20405;-86
2024/03/16 08:41:52;;;;;;;14.00;3.22;;;10.70;99.90;;;;;;5020439;28;20206;-86
2024/03/16 08:44:18;;;;;;;14.90;2.80;;;10.70;99.90;;;;;;5020997;28;20181;-86
2024/03/16 08:46:44;;;;;;;13.70;2.03;;;10.80;99.90;;;;;;5021762;28;20459;-86
2024/03/16 08:49:10;;;;;;;14.00;2.43;;;10.70;99.90;;;;;;5021009;28;20205;-85
2024/03/16 08:51:35;;;;;;;18.10;2.10;;;10.70;99.90;;;;;;5021429;28;20874;-84
2024/03/16 08:54:01;;;;;;;13.77;1.90;;;10.70;99.90;;;;;;5022460;28;20213;-86
2024/03/16 08:56:28;;;;;;;15.27;1.90;;;10.70;99.90;;;;;;5020413;28;20169;-86
2024/03/16 08:58:55;;;;;;;13.98;1.83;;;10.80;99.90;;;;;;5020870;28;20277;-86
2024/03/16 09:01:23;;;;;;;14.20;2.38;;;10.90;99.90;;;;;;5003684;28;20182;-86
2024/03/16 09:03:49;;;;;;;15.00;2.35;;;10.90;99.90;;;;;;5005261;28;20177;-86
2024/03/16 09:06:15;;;;;;;13.00;1.90;;;11.00;99.90;;;;;;5003522;28;20179;-86
2024/03/16 09:08:41;;;;;;;13.45;2.15;;;11.10;99.90;;;;;;5004212;28;20417;-86
2024/03/16 09:11:07;;;;;;;12.00;1.13;;;11.00;99.90;;;;;;5021621;28;20183;-86
2024/03/16 09:13:35;;;;;;;12.30;1.50;;;11.00;99.90;;;;;;5021936;28;20329;-86
2024/03/16 09:16:05;;;;;;;13.88;1.40;;;11.10;99.90;;;;;;5021662;28;20620;-86
2024/03/16 09:18:33;;;;;;;12.75;1.50;;;11.20;99.90;;;;;;5003610;28;20181;-86
2024/03/16 09:20:59;;;;;;;17.70;1.75;;;11.20;99.90;;;;;;5004684;28;20186;-86
2024/03/16 09:23:25;;;;;;;14.50;1.67;;;11.20;99.90;;;;;;5020869;28;20232;-86
2024/03/16 09:25:55;;;;;;;12.73;1.40;;;11.30;99.90;;;;;;5005042;28;20177;-86
2024/03/16 09:28:21;;;;;;;12.60;1.35;;;11.40;99.90;;;;;;5022259;28;20246;-86
2024/03/16 09:30:47;;;;;;;13.68;1.80;;;11.40;99.90;;;;;;5023206;28;20194;-86
2024/03/16 09:33:13;;;;;;;13.10;1.50;;;11.50;99.90;;;;;;5021269;28;20167;-85
2024/03/16 09:35:39;;;;;;;15.03;1.63;;;11.50;99.90;;;;;;5019680;28;20520;-85
2024/03/16 09:38:07;;;;;;;12.90;1.57;;;11.40;99.90;;;;;;5019153;28;20170;-86
2024/03/16 09:40:45;;;;;;;14.38;1.83;;;11.30;99.90;;;;;;5001135;28;20182;-86
2024/03/16 09:43:12;;;;;;;15.75;2.30;;;11.20;99.90;;;;;;5001342;28;20194;-86
2024/03/16 09:45:42;;;;;;;13.25;1.65;;;11.00;99.90;;;;;;5018940;28;20167;-86
2024/03/16 09:48:11;;;;;;;13.35;2.00;;;11.10;99.90;;;;;;5000950;28;20162;-86
2024/03/16 09:50:44;;;;;;;13.70;1.90;;;11.10;99.90;;;;;;5018198;28;20694;-85
2024/03/16 09:53:28;;;;;;;12.68;1.50;;;11.10;99.90;;;;;;5018188;28;20155;-86
2024/03/16 09:55:56;;;;;;;14.30;1.98;;;11.10;99.90;;;;;;5000011;28;20166;-86
2024/03/16 09:58:23;;;;;;;15.35;1.70;;;11.00;99.90;;;;;;5018323;28;20165;-85
2024/03/16 10:00:53;;;;;;;12.60;1.25;;;11.10;99.90;;;;;;5018228;28;20233;-86
2024/03/16 10:03:19;;;;;;;13.88;1.55;;;11.10;99.90;;;;;;5000775;28;20167;-85
2024/03/16 10:05:48;;;;;;;13.38;1.60;;;11.20;99.90;;;;;;5018077;28;20174;-85
2024/03/16 10:08:23;;;;;;;13.30;1.73;;;11.30;99.90;;;;;;5018192;28;20166;-85
2024/03/16 10:10:49;;;;;;;12.90;1.40;;;11.20;99.90;;;;;;5000669;28;20667;-85
2024/03/16 10:13:18;;;;;;;12.23;1.30;;;11.10;99.90;;;;;;5017574;28;20209;-86
2024/03/16 10:15:44;;;;;;;12.63;1.50;;;10.90;99.90;;;;;;5018807;28;20167;-85
2024/03/16 10:18:19;;;;;;;12.55;1.70;;;10.90;99.90;;;;;;5000592;28;20167;-85
2024/03/16 10:20:46;;;;;;;13.23;1.95;;;10.80;99.90;;;;;;5000508;28;20190;-85
2024/03/16 10:23:16;;;;;;;17.23;2.08;;;10.60;99.90;;;;;;5017248;28;20166;-85
2024/03/16 10:25:46;;;;;;;15.55;2.30;;;10.50;99.90;;;;;;4999482;28;20257;-85
2024/03/16 10:28:18;;;;;;;13.50;2.03;;;10.40;99.90;;;;;;4999687;28;20662;-85
2024/03/16 10:30:44;;;;;;;13.35;2.20;;;10.30;99.90;;;;;;5000521;28;20672;-85
2024/03/16 10:33:11;;;;;;;15.25;1.70;;;10.20;99.90;;;;;;4999191;28;20163;-85
2024/03/16 10:35:39;;;;;;;12.90;1.48;;;10.10;99.90;;;;;;5016458;28;20229;-86
2024/03/16 10:38:12;;;;;;;12.60;1.40;;;10.10;99.90;;;;;;5017076;28;20158;-86
2024/03/16 10:40:40;;;;;;;13.15;1.50;;;9.90;99.90;;;;;;4999226;28;20225;-85
2024/03/16 10:43:14;;;;;;;14.70;1.42;;;9.90;99.90;;;;;;4999356;28;20591;-85
2024/03/16 10:45:47;;;;;;;13.63;1.58;;;9.90;99.90;;;;;;4998855;28;20194;-85
2024/03/16 10:48:14;;;;;;;12.90;1.52;;;9.80;99.90;;;;;;5017308;28;20147;-84
2024/03/16 10:50:43;;;;;;;13.98;2.10;;;9.80;99.90;;;;;;5016463;28;20182;-85
2024/03/16 10:53:10;;;;;;;13.98;1.38;;;9.80;99.90;;;;;;5017362;28;20149;-85
2024/03/16 10:55:39;;;;;;;13.30;2.15;;;9.90;99.90;;;;;;5017873;28;20173;-86
2024/03/16 10:58:19;;;;;;;13.13;1.70;;;9.90;99.90;;;;;;5024071;28;20162;-86
2024/03/16 11:00:47;;;;;;;21.52;2.40;;;9.80;99.90;;;;;;5004663;28;20224;-86
2024/03/16 11:03:25;;;;;;;12.98;1.50;;;10.00;99.90;;;;;;5022469;28;20162;-86
2024/03/16 11:05:57;;;;;;;12.90;1.50;;;10.10;99.90;;;;;;5020241;28;20147;-85
2024/03/16 11:08:37;;;;;;;14.23;1.70;;;10.00;99.90;;;;;;5020243;28;20155;-85
2024/03/16 11:11:08;;;;;;;14.90;1.40;;;9.90;99.90;;;;;;5020611;28;20660;-86
2024/03/16 11:13:34;;;;;;;12.98;1.52;;;9.90;99.90;;;;;;5020187;28;20219;-85
2024/03/16 11:16:19;;;;;;;16.42;1.23;;;9.80;99.90;;;;;;5002098;28;20170;-85
2024/03/16 11:18:48;;;;;;;12.02;0.95;;;9.70;99.90;;;;;;5002626;28;20179;-85
2024/03/16 11:21:16;;;;;;;12.20;1.00;;;9.70;99.90;;;;;;5001710;28;20190;-86
2024/03/16 11:23:47;;;;;;;12.05;0.90;;;9.50;99.90;;;;;;5019293;28;20190;-85
2024/03/16 11:26:27;;;;;;;11.98;1.10;;;9.60;99.90;;;;;;5001870;28;20254;-85
2024/03/16 11:29:09;;;;;;;14.88;1.30;;;9.60;99.90;;;;;;5019875;28;20245;-85
2024/03/16 11:31:39;;;;;;;15.55;1.30;;;9.80;99.90;;;;;;5020655;28;20249;-85
2024/03/16 11:34:13;;;;;;;12.20;1.25;;;9.80;99.90;;;;;;5021543;28;20200;-85
2024/03/16 11:36:48;;;;;;;12.70;0.95;;;9.80;99.90;;;;;;5020461;28;20607;-85
2024/03/16 11:39:24;;;;;;;13.70;1.30;;;9.80;99.90;;;;;;5002412;28;20228;-86
2024/03/16 11:41:53;;;;;;;15.25;1.30;;;9.80;99.90;;;;;;5004303;28;20236;-86
2024/03/16 11:44:19;;;;;;;14.50;1.15;;;9.80;99.90;;;;;;5004268;28;20174;-86
2024/03/16 11:46:46;;;;;;;16.17;1.10;;;9.90;99.90;;;;;;5023598;28;20177;-86
2024/03/16 11:49:16;;;;;;;12.75;1.25;;;10.10;99.90;;;;;;5008217;28;20834;-86
2024/03/16 11:51:54;;;;;;;12.77;1.38;;;10.30;99.90;;;;;;5008983;28;20216;-86
2024/03/16 11:54:21;;;;;;;15.93;1.55;;;10.50;99.90;;;;;;5008606;28;20293;-86
2024/03/16 11:56:47;;;;;;;13.63;1.25;;;10.70;99.90;;;;;;5025649;28;20686;-86
2024/03/16 11:59:20;;;;;;;14.05;1.55;;;10.90;99.90;;;;;;5026409;28;20182;-86
2024/03/16 12:01:48;;;;;;;14.20;1.30;;;10.90;99.90;;;;;;5026024;28;20242;-86
2024/03/16 12:04:17;;;;;;;15.05;1.48;;;11.00;99.90;;;;;;5008568;28;20265;-86
2024/03/16 12:06:46;;;;;;;12.88;1.20;;;11.00;99.90;;;;;;5025166;28;20167;-86
2024/03/16 12:09:30;;;;;;;15.15;1.40;;;10.90;99.90;;;;;;5025640;28;20235;-86
2024/03/16 12:11:58;;;;;;;13.75;1.48;;;10.90;99.90;;;;;;5024755;28;20182;-86
2024/03/16 12:14:24;;;;;;;13.98;1.48;;;10.90;99.90;;;;;;5025346;28;20201;-86
2024/03/16 12:16:51;;;;;;;12.20;1.23;;;10.80;99.90;;;;;;5023836;28;20162;-85
2024/03/16 12:19:20;;;;;;;13.40;1.08;;;10.70;99.90;;;;;;5004136;28;20173;-85
2024/03/16 12:21:47;;;;;;;12.13;0.98;;;10.50;99.90;;;;;;5019676;28;20182;-85
2024/03/16 12:24:14;;;;;;;13.90;1.23;;;10.50;99.90;;;;;;5018729;28;20170;-86
2024/03/16 12:26:50;;;;;;;12.90;1.15;;;10.40;99.90;;;;;;5017951;28;20578;-84
2024/03/16 12:29:17;;;;;;;12.25;0.98;;;10.40;91.60;;;;;;5000073;28;20170;-85
2024/03/16 12:31:43;;;;;;;18.08;1.27;;;10.40;55.80;;;;;;5000633;28;20186;-85
2024/03/16 12:34:13;;;;;;;16.38;1.42;;;10.40;23.50;;;;;;5018267;28;20217;-85
2024/03/16 12:36:39;;;;;;;12.38;1.10;;;10.50;21.50;;;;;;5000905;28;20238;-86
2024/03/16 12:39:08;;;;;;;15.07;1.35;;;10.60;14.80;;;;;;5000903;28;20171;-85
2024/03/16 12:41:49;;;;;;;12.68;0.90;;;10.70;1.20;;;;;;5000513;28;20679;-85